Time;durP1;ratioP1;P1;durP2;ratioP2;P2;SDS_P1;SDS_P2;PMS_P1;PMS_P2;Temp;Humidity;BMP_temperature;BMP_pressure;BME280_temperature;BME280_humidity;BME280_pressure;Samples;Min_cycle;Max_cycle;Signal;HPM_P1;HPM_P2
2022/07/01 00:07:42;;;;;;;30.50;26.30;;;;;;;20.51;71.06;98211.38;433804;1268;108863;-43
2022/07/01 00:17:49;;;;;;;30.60;25.80;;;;;;;20.21;71.34;98215.88;433658;1268;97222;-43
2022/07/01 00:27:56;;;;;;;30.20;26.00;;;;;;;20.00;71.74;98217.09;433505;1268;109741;-45
2022/07/01 00:38:02;;;;;;;30.10;24.70;;;;;;;20.10;72.03;98205.14;433724;1267;108806;-41
2022/07/01 00:48:09;;;;;;;30.50;24.60;;;;;;;20.12;72.23;98202.41;433639;1268;96588;-46
2022/07/01 01:08:22;;;;;;;27.40;24.50;;;;;;;20.11;72.47;98188.80;433562;1268;95515;-42
2022/07/01 01:18:29;;;;;;;33.90;27.50;;;;;;;19.95;72.36;98185.23;433611;1268;109948;-42
2022/07/01 01:28:35;;;;;;;29.40;24.10;;;;;;;19.87;72.79;98187.48;433706;1267;108664;-41
2022/07/01 01:38:42;;;;;;;29.20;24.90;;;;;;;19.79;72.83;98185.28;433911;1268;95449;-42
2022/07/01 01:48:50;;;;;;;31.00;27.80;;;;;;;19.79;72.87;98189.05;433840;1268;109663;-42
2022/07/01 01:58:57;;;;;;;28.90;25.20;;;;;;;19.80;73.25;98192.83;433775;1268;97353;-42
2022/07/01 02:09:04;;;;;;;33.30;26.40;;;;;;;19.83;73.22;98190.88;433732;1267;111083;-39
2022/07/01 02:19:11;;;;;;;37.20;26.10;;;;;;;19.73;73.15;98195.98;433685;1268;108875;-42
2022/07/01 02:29:18;;;;;;;30.20;25.50;;;;;;;19.54;73.08;98196.23;433745;1268;98059;-42
2022/07/01 02:39:25;;;;;;;32.40;24.00;;;;;;;19.50;73.33;98203.76;433666;1268;108624;-41
2022/07/01 02:49:32;;;;;;;32.70;26.00;;;;;;;19.41;73.18;98211.91;433795;1267;97894;-41
2022/07/01 02:59:40;;;;;;;29.10;25.90;;;;;;;19.46;73.60;98208.27;433722;1268;111120;-42
2022/07/01 03:09:47;;;;;;;29.20;25.70;;;;;;;19.53;73.23;98210.42;433836;1268;108741;-41
2022/07/01 03:19:55;;;;;;;29.50;26.50;;;;;;;19.56;73.32;98210.14;433775;1267;97922;-41
2022/07/01 03:30:03;;;;;;;27.50;24.60;;;;;;;20.76;72.72;98222.35;433870;1268;109805;-46
2022/07/01 03:40:12;;;;;;;25.70;23.30;;;;;;;22.08;71.38;98220.37;433944;1268;109415;-42
2022/07/01 03:50:22;;;;;;;28.20;25.10;;;;;;;23.30;69.98;98222.80;433677;1268;98012;-42
2022/07/01 04:00:28;;;;;;;29.80;25.00;;;;;;;24.53;68.88;98235.05;433990;1268;111059;-42
2022/07/01 04:10:37;;;;;;;32.60;25.30;;;;;;;25.23;67.47;98233.48;433736;1268;108770;-41
2022/07/01 04:22:32;;;;;;;28.60;22.90;;;;;;;26.26;66.41;98226.67;433803;1268;97987;-44
2022/07/01 04:31:11;;;;;;;28.10;21.40;;;;;;;27.27;64.98;98231.61;433697;1268;111090;-42
2022/07/01 04:51:43;;;;;;;25.20;19.40;;;;;;;29.18;61.34;98232.58;433605;1268;98030;-43
2022/07/01 05:01:51;;;;;;;24.30;17.20;;;;;;;30.05;60.59;98229.04;433723;1268;110142;-43
2022/07/01 05:11:58;;;;;;;21.40;17.10;;;;;;;30.31;59.28;98230.17;433806;1265;108739;-43
2022/07/01 05:22:03;;;;;;;21.20;16.80;;;;;;;30.71;58.38;98241.61;433932;1268;97920;-43
2022/07/01 05:32:10;;;;;;;22.50;16.60;;;;;;;30.57;57.48;98237.08;433545;1268;98420;-43
2022/07/01 05:42:18;;;;;;;26.80;17.30;;;;;;;30.49;57.16;98232.38;433862;1267;108891;-44
2022/07/01 05:52:25;;;;;;;26.20;17.10;;;;;;;30.86;56.63;98244.66;433727;1268;97907;-42
2022/07/01 06:02:32;;;;;;;28.80;17.80;;;;;;;31.40;55.76;98248.61;433744;1268;109188;-47
2022/07/01 06:12:40;;;;;;;20.20;16.90;;;;;;;31.08;54.90;98247.90;433757;1268;109279;-43
2022/07/01 06:22:47;;;;;;;23.40;17.00;;;;;;;31.15;54.51;98246.79;433763;1268;98110;-44
2022/07/01 06:32:55;;;;;;;17.00;15.40;;;;;;;31.98;54.11;98250.80;433909;1268;97949;-44
2022/07/01 06:43:03;;;;;;;16.50;13.60;;;;;;;32.39;52.29;98245.59;433651;1268;111073;-44
2022/07/01 06:53:10;;;;;;;17.80;13.80;;;;;;;32.59;49.85;98245.45;433804;1268;108760;-44
2022/07/01 07:03:17;;;;;;;17.70;13.70;;;;;;;32.89;47.97;98247.86;433647;1268;97900;-42
2022/07/01 07:13:25;;;;;;;25.80;14.10;;;;;;;32.90;46.76;98246.23;433547;1268;111140;-43
2022/07/01 07:23:32;;;;;;;17.90;13.40;;;;;;;33.23;45.81;98242.92;433615;1268;108793;-45
2022/07/01 07:33:39;;;;;;;22.20;13.40;;;;;;;34.00;45.93;98240.20;433688;1268;98546;-44
2022/07/01 07:43:47;;;;;;;18.30;12.70;;;;;;;34.41;44.27;98242.25;433723;1268;111174;-44
2022/07/01 07:53:55;;;;;;;19.40;12.00;;;;;;;34.48;42.99;98252.90;433591;1268;108440;-43
2022/07/01 08:04:02;;;;;;;13.30;11.20;;;;;;;34.71;42.22;98247.63;433403;1268;109557;-43
2022/07/01 08:14:09;;;;;;;15.20;10.20;;;;;;;35.16;41.42;98240.91;433596;1268;97504;-48
2022/07/01 08:24:17;;;;;;;11.20;10.10;;;;;;;35.15;40.34;98239.95;433677;1268;111145;-43
2022/07/01 08:34:24;;;;;;;9.40;8.10;;;;;;;35.32;38.90;98240.09;433427;1268;108954;-43
2022/07/01 08:44:32;;;;;;;11.50;7.30;;;;;;;35.80;38.64;98242.95;433871;1268;97532;-44
2022/07/01 09:04:45;;;;;;;9.40;7.20;;;;;;;35.84;35.81;98246.91;433779;1268;107611;-44
2022/07/01 09:14:53;;;;;;;8.40;6.30;;;;;;;36.28;35.17;98252.64;433607;1268;108839;-43
2022/07/01 09:24:59;;;;;;;8.60;7.00;;;;;;;35.83;33.12;98256.52;433657;1268;97088;-43
2022/07/01 09:35:06;;;;;;;8.50;6.40;;;;;;;35.88;34.35;98254.82;433612;1268;110428;-45
2022/07/01 09:45:13;;;;;;;13.40;7.90;;;;;;;36.66;34.59;98258.43;433681;1268;108663;-43
2022/07/01 09:55:21;;;;;;;8.90;8.00;;;;;;;36.66;33.44;98255.27;433783;1268;97871;-43
2022/07/01 10:05:31;;;;;;;20.50;9.00;;;;;;;36.66;34.29;98243.94;433729;1268;111121;-43
2022/07/01 10:15:40;;;;;;;12.90;8.00;;;;;;;37.00;33.99;98241.44;433473;1268;108747;-43
2022/07/01 10:25:49;;;;;;;8.20;7.20;;;;;;;37.17;33.52;98240.35;433790;1268;97948;-47
2022/07/01 10:35:56;;;;;;;10.60;7.60;;;;;;;36.67;32.79;98229.91;434213;1268;110736;-45
2022/07/01 10:46:04;;;;;;;11.30;7.60;;;;;;;36.63;33.12;98220.84;434326;1267;108212;-46
2022/07/01 10:56:15;;;;;;;12.40;8.80;;;;;;;36.93;33.17;98208.09;433942;1268;98236;-43
2022/07/01 11:06:22;;;;;;;12.20;7.30;;;;;;;36.67;32.95;98206.23;434049;1268;111109;-44
2022/07/01 11:16:30;;;;;;;9.60;7.50;;;;;;;36.91;32.48;98197.42;434062;1268;108452;-43
2022/07/01 11:26:37;;;;;;;11.10;7.60;;;;;;;36.73;31.65;98179.17;434018;1268;97898;-45
2022/07/01 11:47:11;;;;;;;7.90;7.10;;;;;;;37.27;31.94;98153.18;433871;1267;108645;-42
2022/07/01 11:57:19;;;;;;;16.30;8.90;;;;;;;36.76;30.64;98149.99;434179;1268;97913;-48
2022/07/01 12:07:26;;;;;;;17.50;8.50;;;;;;;36.61;31.23;98132.48;434037;1268;110728;-45
2022/07/01 12:17:34;;;;;;;8.80;6.30;;;;;;;36.44;30.29;98142.09;434030;1268;108797;-43
2022/07/01 12:27:45;;;;;;;10.30;6.80;;;;;;;36.82;30.44;98156.61;434059;1268;96884;-44
2022/07/01 12:37:52;;;;;;;12.60;8.20;;;;;;;37.21;30.23;98155.39;434054;1268;110814;-44
2022/07/01 12:48:00;;;;;;;14.40;9.00;;;;;;;37.28;30.29;98156.55;433992;1268;109223;-43
2022/07/01 12:58:10;;;;;;;8.40;7.60;;;;;;;37.19;30.28;98156.52;433950;1267;97873;-46
2022/07/01 13:08:17;;;;;;;13.50;8.50;;;;;;;36.52;30.41;98156.54;433686;1268;111137;-45
2022/07/01 13:18:24;;;;;;;11.60;8.10;;;;;;;35.79;31.12;98158.70;434076;1268;108708;-43
2022/07/01 13:28:31;;;;;;;15.40;8.80;;;;;;;35.78;31.68;98150.85;433987;1267;97932;-44
2022/07/01 13:38:39;;;;;;;15.20;7.20;;;;;;;36.24;31.79;98156.88;434085;1268;111224;-45
2022/07/01 13:48:46;;;;;;;9.80;6.80;;;;;;;36.18;31.48;98150.96;433696;1268;108800;-44
2022/07/01 13:58:55;;;;;;;14.30;5.60;;;;;;;36.49;31.08;98123.92;433310;1270;97919;-43
2022/07/01 14:09:01;;;;;;;5.20;4.10;;;;;;;36.18;29.00;98117.70;433674;1268;110041;-46
2022/07/01 14:19:09;;;;;;;9.60;5.00;;;;;;;35.92;27.40;98111.17;433492;1268;108922;-44
2022/07/01 14:29:16;;;;;;;12.10;4.90;;;;;;;35.98;28.40;98112.75;433724;1268;97987;-42
2022/07/01 14:39:24;;;;;;;12.80;5.30;;;;;;;36.26;28.77;98111.72;433314;1270;111230;-42
2022/07/01 14:49:31;;;;;;;13.00;5.10;;;;;;;36.07;28.48;98107.23;433908;1268;107833;-43
2022/07/01 14:59:38;;;;;;;8.50;6.00;;;;;;;35.98;29.38;98115.45;434177;1267;98022;-45
2022/07/01 15:09:46;;;;;;;14.10;5.50;;;;;;;35.92;29.07;98121.55;433969;1267;111177;-42
2022/07/01 15:19:54;;;;;;;7.30;4.90;;;;;;;35.85;29.08;98129.02;433897;1268;108772;-43
2022/07/01 15:30:00;;;;;;;6.60;5.20;;;;;;;35.87;29.61;98138.02;434152;1267;97913;-43
2022/07/01 15:40:09;;;;;;;5.70;5.20;;;;;;;35.79;29.54;98148.80;433562;1268;111091;-45
2022/07/01 16:00:24;;;;;;;9.60;8.70;;;;;;;35.59;30.67;98167.52;433218;1269;97935;-45
2022/07/01 16:10:46;;;;;;;12.60;8.60;;;;;;;35.23;32.07;98173.56;433824;1268;110262;-44
2022/07/01 16:20:56;;;;;;;27.00;9.20;;;;;;;34.37;33.34;98209.24;433612;1268;108811;-45
2022/07/01 16:41:14;;;;;;;14.60;10.70;;;;;;;29.67;42.03;98224.53;433460;1270;110090;-44
2022/07/01 17:01:30;;;;;;;12.90;10.10;;;;;;;28.51;46.17;98223.42;433699;1268;97897;-43
2022/07/01 17:11:38;;;;;;;20.40;9.90;;;;;;;28.24;46.88;98216.09;434009;1268;108804;-44
2022/07/01 17:42:03;;;;;;;12.20;11.10;;;;;;;27.59;48.62;98224.23;434041;1267;108387;-42
2022/07/01 17:52:10;;;;;;;13.00;11.70;;;;;;;27.18;49.50;98223.02;433984;1267;97922;-46
2022/07/01 18:02:18;;;;;;;14.80;11.90;;;;;;;26.90;50.28;98250.30;433830;1268;111102;-43
2022/07/01 18:12:33;;;;;;;16.70;12.00;;;;;;;26.65;50.67;98307.02;433134;1270;108801;-42
2022/07/01 18:22:43;;;;;;;16.80;15.10;;;;;;;26.43;51.78;98390.40;433662;1268;97916;-44
2022/07/01 18:32:55;;;;;;;14.90;13.30;;;;;;;26.05;53.12;98451.48;433183;1269;111127;-44
2022/07/01 18:43:03;;;;;;;18.50;16.20;;;;;;;25.65;54.76;98447.45;433627;1268;108955;-43
2022/07/01 18:53:10;;;;;;;21.80;15.80;;;;;;;25.10;57.98;98475.63;433050;1270;97417;-41
2022/07/01 19:03:15;;;;;;;;;;;;;;;24.64;60.08;98471.98;433366;1268;108727;-42
2022/07/01 19:13:24;;;;;;;19.50;14.80;;;;;;;24.24;61.23;98522.29;433179;1270;97712;-46
2022/07/01 19:23:31;;;;;;;16.90;15.20;;;;;;;24.16;61.26;98579.98;433963;1268;111025;-42
2022/07/01 19:33:37;;;;;;;;;;;;;;;23.97;62.48;98589.34;433987;1268;108789;-43
2022/07/01 19:43:44;;;;;;;17.40;13.70;;;;;;;23.60;63.73;98591.98;434030;1268;97924;-41
2022/07/01 20:03:58;;;;;;;20.00;10.10;;;;;;;23.09;64.76;98604.50;433977;1267;97498;-42
2022/07/01 20:14:06;;;;;;;18.80;7.10;;;;;;;22.68;64.32;98700.34;434159;1268;111254;-41
2022/07/01 20:24:13;;;;;;;6.60;5.40;;;;;;;22.34;64.26;98737.88;433933;1268;108264;-44
2022/07/01 20:34:19;;;;;;;;;;;;;;;22.12;64.39;98711.39;433961;1268;97985;-44
2022/07/01 20:44:27;;;;;;;5.70;5.10;;;;;;;21.94;64.94;98737.64;433882;1268;111184;-43
2022/07/01 20:54:34;;;;;;;11.00;6.90;;;;;;;21.88;65.04;98735.47;433443;1268;737723;-45
2022/07/01 21:04:41;;;;;;;8.60;7.10;;;;;;;21.76;65.51;98733.88;434139;1268;97107;-41
2022/07/01 21:14:49;;;;;;;7.10;5.80;;;;;;;21.74;65.49;98731.48;433938;1268;109336;-42
2022/07/01 21:24:55;;;;;;;8.80;6.50;;;;;;;21.80;65.32;98743.18;433946;1268;97891;-41
2022/07/01 21:35:01;;;;;;;7.40;6.70;;;;;;;21.71;65.33;98759.16;433924;1268;110863;-42
2022/07/01 21:45:10;;;;;;;6.90;5.90;;;;;;;21.28;65.96;98766.83;433975;1268;109595;-43
2022/07/01 21:55:19;;;;;;;6.90;6.30;;;;;;;20.72;66.70;98802.90;434227;1268;97895;-41
2022/07/01 22:15:43;;;;;;;8.30;6.60;;;;;;;20.05;68.88;98825.35;433889;1267;97503;-43
2022/07/01 22:25:51;;;;;;;9.00;7.70;;;;;;;19.93;69.36;98883.36;433988;1267;111049;-40
2022/07/01 22:35:57;;;;;;;7.10;6.10;;;;;;;19.88;69.53;98932.24;433970;1268;107617;-42
2022/07/01 22:46:13;;;;;;;7.20;6.60;;;;;;;19.72;70.05;98975.22;434100;1268;97890;-41
2022/07/01 23:06:31;;;;;;;7.80;5.80;;;;;;;19.51;70.88;99019.45;433481;1268;97664;-42
2022/07/01 23:16:40;;;;;;;9.50;6.40;;;;;;;19.43;70.97;98944.62;433589;1268;110738;-40
2022/07/01 23:26:48;;;;;;;;;;;;;;;19.26;71.19;98817.17;433406;1268;108782;-41
2022/07/01 23:36:56;;;;;;;7.80;7.20;;;;;;;19.00;71.98;98766.27;433530;1268;97537;-41
2022/07/01 23:47:04;;;;;;;8.60;6.10;;;;;;;18.90;72.21;98824.75;433520;1268;108790;-43
2022/07/01 23:57:11;;;;;;;7.60;6.70;;;;;;;18.91;72.21;98874.95;434036;1268;97490;-43
